Etusivu
METAR-TAF:

METAR-TAF

Lentoasemat :

Djibouti, Djibouti

Amboulin kansainvälinen lentoasema

Leveyspiiri: 11-33N, Pituuspiiri: 043-10E, korkeus merenpinnasta: 49 m

Tämänhetkinen sää

Tämä raportti tehtiin 9 tuntia ja 33 minuuttia sitten, kello 11.00 UTC
Tuuli 18 kn idästä/koillisesta
Lämpötila 44°C
Kosteus 24%
Ilmanpaine
Näkyvyys: 1000 m
selkeää

METAR: HDAM 231100Z 07018KT 8000 HS SKC 44/19 1000

Aika: 23:33 (20:33 UTC)

Sääennuste

Tämä raportti tehtiin 21 tuntia ja 33 minuuttia sitten, kello 23.00 UTC
Ennuste voimassa 23. päivästä klo 00 UTC - 23. päivään klo 24 UTC
Tuuli 3 kn eri suunnista
Näkyvyys: 8000 m
usvaa
Tulossa
23. päivästä klo 06 UTC - 23. päivään klo 12 UTC
Tuuli 14 kn lännestä
Tulossa
23. päivästä klo 12 UTC - 23. päivään klo 15 UTC
Tuuli 10 kn idästä
Muutamia pilviä 2300 ft:n korkeudessa

TAF: HDAM 222300Z 2300/2324 VRB03KT 8000 HZ NSC BECMG 2306/2312 27014KT BECMG 2312/2315 08010KT FEW023

Säähavainnot ja -ennusteet yli 4000 lentoasemalta (METAR- ja TAF-raportit).

Käytössä olevat sääasemat on merkitty karttaan keltaisilla ja punaisilla pisteillä.

Aseta hiiri pisteen päälle nähdäksesi sääaseman nimen.

Klikkaa sitten nähdäksesi säähavainnot ja -ennusteet.

Kartan vaihtaminen: klikkaa mustalla rastilla varustettuja vihreitä pisteitä, niin voit zoomata sisään; viivalla varustettua vihreää pistettä, niin voit zoomata ulos tai vihreitä nuolia, niin pääset viereisille kartoille.


METAR-TAF: